createdAt,value
2022-09-06T00:00:12.091Z,1.60
2022-09-06T00:02:39.140Z,1.85
2022-09-06T00:05:07.174Z,2.10
2022-09-06T00:07:34.476Z,1.70
2022-09-06T00:10:01.696Z,1.35
2022-09-06T00:12:28.911Z,1.35
2022-09-06T00:14:55.887Z,1.25
2022-09-06T00:17:23.189Z,1.48
2022-09-06T00:19:50.152Z,1.40
2022-09-06T00:22:17.176Z,1.30
2022-09-06T00:24:44.120Z,1.45
2022-09-06T00:27:11.042Z,1.55
2022-09-06T00:29:37.965Z,1.60
2022-09-06T00:32:04.945Z,1.92
2022-09-06T00:34:32.089Z,1.30
2022-09-06T00:36:59.035Z,1.48
2022-09-06T00:39:26.052Z,1.50
2022-09-06T00:41:53.151Z,1.55
2022-09-06T00:44:20.083Z,2.05
2022-09-06T00:46:49.371Z,2.10
2022-09-06T00:49:24.393Z,2.40
2022-09-06T00:51:59.082Z,3.00
2022-09-06T00:54:26.576Z,2.50
2022-09-06T00:56:54.579Z,2.50
2022-09-06T00:59:22.051Z,2.33
2022-09-06T01:01:49.065Z,1.98
2022-09-06T01:04:16.454Z,1.88
2022-09-06T01:07:01.021Z,2.10
2022-09-06T01:09:49.371Z,2.03
2022-09-06T01:12:37.760Z,2.33
2022-09-06T01:15:35.156Z,2.17
2022-09-06T01:18:23.854Z,2.10
2022-09-06T01:21:09.278Z,2.33
2022-09-06T01:23:39.197Z,2.17
2022-09-06T01:26:18.622Z,2.03
2022-09-06T01:28:46.796Z,2.63
2022-09-06T01:31:25.848Z,2.53
2022-09-06T01:34:07.762Z,2.35
2022-09-06T01:37:08.349Z,2.78
2022-09-06T01:39:36.382Z,2.53
2022-09-06T01:42:14.683Z,2.85
2022-09-06T01:44:52.811Z,2.65
2022-09-06T01:47:19.688Z,2.87
2022-09-06T01:50:30.685Z,2.30
2022-09-06T01:53:19.033Z,2.17
2022-09-06T01:55:54.779Z,2.20
2022-09-06T01:58:30.597Z,2.47
2022-09-06T02:01:03.507Z,2.17
2022-09-06T02:03:35.244Z,2.60
2022-09-06T02:06:05.632Z,2.40
2022-09-06T02:08:47.318Z,2.50
2022-09-06T02:11:15.967Z,3.13
2022-09-06T02:13:53.552Z,2.80
2022-09-06T02:16:24.457Z,2.67
2022-09-06T02:19:00.969Z,3.08
2022-09-06T02:21:35.129Z,2.95
2022-09-06T02:24:05.821Z,3.42
2022-09-06T02:26:40.087Z,3.30
2022-09-06T02:29:08.030Z,2.97
2022-09-06T02:31:47.878Z,3.30
2022-09-06T02:34:18.525Z,3.13
2022-09-06T02:36:46.135Z,3.67
2022-09-06T02:39:13.772Z,3.90
2022-09-06T02:41:43.006Z,3.63
2022-09-06T02:44:10.097Z,3.80
2022-09-06T02:46:37.179Z,3.85
2022-09-06T02:49:04.443Z,3.78
2022-09-06T02:51:35.956Z,4.72
2022-09-06T02:54:02.856Z,3.80
2022-09-06T02:56:29.783Z,3.45
2022-09-06T02:58:56.648Z,3.20
2022-09-06T03:01:23.610Z,3.63
2022-09-06T03:03:50.616Z,3.33
2022-09-06T03:06:17.552Z,3.30
2022-09-06T03:08:44.473Z,3.58
2022-09-06T03:11:11.395Z,3.95
2022-09-06T03:13:38.392Z,3.58
2022-09-06T03:16:05.534Z,4.57
2022-09-06T03:18:34.696Z,4.25
2022-09-06T03:21:02.356Z,4.13
2022-09-06T03:23:30.311Z,4.50
2022-09-06T03:25:57.498Z,4.85
2022-09-06T03:28:24.630Z,3.88
2022-09-06T03:30:52.872Z,4.45
2022-09-06T03:33:20.838Z,4.95
2022-09-06T03:35:50.991Z,5.47
2022-09-06T03:38:18.845Z,5.82
2022-09-06T03:40:47.459Z,4.85
2022-09-06T03:43:15.116Z,4.85
2022-09-06T03:45:49.465Z,4.82
2022-09-06T03:48:17.787Z,4.50
2022-09-06T03:50:49.837Z,5.10
2022-09-06T03:53:18.462Z,4.53
2022-09-06T03:55:50.243Z,4.72
2022-09-06T03:58:19.424Z,4.75
2022-09-06T04:00:46.507Z,5.25
2022-09-06T04:03:13.751Z,5.85
2022-09-06T04:05:41.140Z,5.63
2022-09-06T04:08:08.125Z,4.90
2022-09-06T04:10:35.071Z,5.10
2022-09-06T04:13:01.987Z,5.72
2022-09-06T04:15:28.931Z,5.75
2022-09-06T04:17:55.895Z,5.63
2022-09-06T04:20:23.499Z,6.00
2022-09-06T04:22:50.409Z,6.30
2022-09-06T04:25:17.347Z,5.50
2022-09-06T04:27:44.241Z,5.40
2022-09-06T04:30:11.755Z,5.50
2022-09-06T04:32:38.662Z,5.70
2022-09-06T04:35:06.125Z,6.18
2022-09-06T04:37:33.092Z,6.30
2022-09-06T04:40:00.057Z,6.82
2022-09-06T04:42:27.193Z,5.43
2022-09-06T04:44:54.149Z,6.18
2022-09-06T04:47:21.201Z,6.20
2022-09-06T04:49:51.039Z,6.65
2022-09-06T04:52:18.053Z,6.43
2022-09-06T04:54:45.765Z,7.25
2022-09-06T04:57:12.695Z,6.38
2022-09-06T04:59:39.644Z,6.30
2022-09-06T05:02:06.661Z,5.25
2022-09-06T05:04:33.682Z,4.47
2022-09-06T05:07:05.565Z,4.13
2022-09-06T05:09:33.139Z,3.88
2022-09-06T05:12:00.723Z,3.80
2022-09-06T05:14:28.932Z,3.47
2022-09-06T05:16:56.170Z,3.27
2022-09-06T05:19:23.231Z,2.80
2022-09-06T05:21:51.814Z,2.85
2022-09-06T05:24:18.910Z,3.30
2022-09-06T05:26:45.881Z,3.13
2022-09-06T05:29:12.886Z,2.90
2022-09-06T05:31:39.960Z,3.65
2022-09-06T05:34:06.902Z,2.85
2022-09-06T05:36:33.896Z,2.58
2022-09-06T05:39:00.862Z,2.55
2022-09-06T05:41:28.111Z,2.92
2022-09-06T05:43:55.265Z,2.65
2022-09-06T05:46:22.254Z,2.47
2022-09-06T05:48:57.998Z,2.90
2022-09-06T05:51:24.915Z,2.70
2022-09-06T05:53:51.818Z,2.88
2022-09-06T05:56:19.205Z,2.85
2022-09-06T05:58:46.163Z,2.42
2022-09-06T06:01:27.703Z,2.13
2022-09-06T06:04:12.576Z,2.30
2022-09-06T06:06:39.460Z,2.33
2022-09-06T06:09:06.408Z,2.10
2022-09-06T06:11:33.319Z,2.25
2022-09-06T06:14:02.083Z,1.60
2022-09-06T06:16:29.170Z,1.50
2022-09-06T06:18:56.389Z,1.40
2022-09-06T06:21:28.873Z,1.80
2022-09-06T06:23:58.359Z,1.67
2022-09-06T06:26:27.055Z,2.00
2022-09-06T06:28:54.156Z,1.50
2022-09-06T06:31:22.700Z,1.77
2022-09-06T06:33:50.547Z,1.42
2022-09-06T06:36:21.976Z,1.92
2022-09-06T06:38:50.174Z,1.42
2022-09-06T06:41:19.039Z,2.00
2022-09-06T06:43:45.949Z,2.15
2022-09-06T06:46:13.823Z,1.70
2022-09-06T06:48:41.520Z,1.67
2022-09-06T06:51:11.483Z,2.53
2022-09-06T06:53:38.801Z,1.45
2022-09-06T06:56:18.997Z,1.40
2022-09-06T06:58:48.822Z,1.17
2022-09-06T07:01:17.039Z,1.10
2022-09-06T07:03:44.320Z,1.10
2022-09-06T07:06:11.982Z,0.90
2022-09-06T07:08:40.116Z,1.35
2022-09-06T07:11:10.050Z,1.27
2022-09-06T07:13:37.460Z,1.00
2022-09-06T07:16:15.284Z,1.30
2022-09-06T07:18:43.675Z,0.80
2022-09-06T07:24:08.299Z,0.95
2022-09-06T07:26:37.585Z,1.83
2022-09-06T07:29:08.482Z,0.93
2022-09-06T07:34:25.888Z,0.95
2022-09-06T07:36:54.852Z,0.93
2022-09-06T07:41:48.851Z,0.90
2022-09-06T07:44:15.895Z,6.22
2022-09-06T07:46:43.044Z,1.60
2022-09-06T07:49:10.095Z,1.08
2022-09-06T07:51:37.085Z,2.33
2022-09-06T07:54:29.315Z,1.45
2022-09-06T07:56:51.599Z,1.42
2022-09-06T07:59:18.603Z,1.10
2022-09-06T08:01:47.585Z,1.00
2022-09-06T08:04:15.261Z,1.00
2022-09-06T08:09:33.043Z,2.00
2022-09-06T08:12:06.625Z,1.60
2022-09-06T08:14:34.107Z,1.30
2022-09-06T08:17:01.465Z,2.63
2022-09-06T08:19:28.490Z,5.97
2022-09-06T08:21:56.356Z,1.20
2022-09-06T08:24:23.557Z,1.30
2022-09-06T08:26:50.514Z,2.25
2022-09-06T08:29:19.011Z,1.40
2022-09-06T08:31:47.011Z,1.10
2022-09-06T08:34:15.265Z,1.08
2022-09-06T08:36:43.643Z,0.90
2022-09-06T08:39:11.653Z,0.90
2022-09-06T08:42:00.376Z,0.85
2022-09-06T08:44:56.749Z,5.60
2022-09-06T08:47:24.823Z,1.75
2022-09-06T08:49:56.919Z,0.80
2022-09-06T08:52:39.305Z,0.70
2022-09-06T08:55:26.345Z,0.50
2022-09-06T08:58:12.092Z,0.60
2022-09-06T09:00:41.769Z,1.23
2022-09-06T09:03:24.292Z,1.70
2022-09-06T09:08:50.890Z,1.50
2022-09-06T09:15:01.108Z,1.15
2022-09-06T09:17:34.796Z,0.73
2022-09-06T09:20:13.428Z,0.68
2022-09-06T09:22:41.021Z,1.00
2022-09-06T09:25:11.933Z,0.70
2022-09-06T09:27:39.758Z,0.82
2022-09-06T09:32:54.670Z,1.07
2022-09-06T09:35:30.552Z,0.85
2022-09-06T09:38:07.865Z,0.85
2022-09-06T09:40:43.046Z,0.63
2022-09-06T09:43:32.105Z,0.50
2022-09-06T09:46:23.336Z,0.93
2022-09-06T09:49:08.248Z,0.65
2022-09-06T09:51:38.271Z,2.03
2022-09-06T09:54:09.223Z,0.60
2022-09-06T09:56:36.177Z,0.40
2022-09-06T09:59:07.276Z,0.57
2022-09-06T10:01:34.554Z,0.70
2022-09-06T10:07:12.110Z,0.60
2022-09-06T10:09:42.769Z,1.85
2022-09-06T10:12:19.066Z,1.08
2022-09-06T10:14:50.219Z,0.45
2022-09-06T10:17:41.821Z,0.60
2022-09-06T10:20:12.716Z,0.60
2022-09-06T10:22:58.601Z,0.60
2022-09-06T10:25:38.277Z,0.57
2022-09-06T10:28:29.447Z,0.60
2022-09-06T10:31:02.649Z,0.60
2022-09-06T10:34:00.191Z,0.57
2022-09-06T10:36:37.722Z,0.70
2022-09-06T10:39:26.383Z,0.60
2022-09-06T10:42:21.447Z,1.80
2022-09-06T10:45:28.308Z,1.02
2022-09-06T10:48:13.910Z,1.13
2022-09-06T10:50:50.384Z,0.73
2022-09-06T10:53:30.276Z,0.43
2022-09-06T10:56:27.516Z,0.35
2022-09-06T10:59:39.881Z,0.40
2022-09-06T11:02:15.539Z,0.45
2022-09-06T11:07:36.395Z,0.50
2022-09-06T11:10:11.399Z,0.40
2022-09-06T11:12:52.800Z,0.50
2022-09-06T11:15:22.669Z,0.65
2022-09-06T11:18:18.720Z,0.90
2022-09-06T11:20:57.614Z,0.40
2022-09-06T11:26:40.690Z,0.35
2022-09-06T11:29:16.577Z,0.30
2022-09-06T11:34:38.550Z,0.30
2022-09-06T11:37:08.620Z,0.40
2022-09-06T11:43:01.293Z,0.65
2022-09-06T11:45:52.095Z,0.50
2022-09-06T11:48:45.518Z,0.40
2022-09-06T11:51:30.873Z,0.50
2022-09-06T11:54:16.703Z,0.40
2022-09-06T11:56:58.586Z,0.50
2022-09-06T11:59:46.483Z,0.70
2022-09-06T12:02:34.065Z,0.40
2022-09-06T12:05:01.334Z,0.40
2022-09-06T12:07:31.073Z,0.40
2022-09-06T12:10:01.412Z,0.65
2022-09-06T12:12:50.824Z,0.55
2022-09-06T12:15:54.489Z,0.60
2022-09-06T12:18:47.827Z,0.50
2022-09-06T12:21:34.539Z,0.70
2022-09-06T12:24:02.531Z,0.80
2022-09-06T12:26:55.618Z,1.60
2022-09-06T12:29:28.521Z,0.77
2022-09-06T12:32:00.939Z,0.60
2022-09-06T12:34:31.346Z,0.70
2022-09-06T12:37:07.266Z,0.70
2022-09-06T12:39:34.685Z,0.60
2022-09-06T12:42:12.639Z,0.70
2022-09-06T12:44:43.469Z,0.70
2022-09-06T12:47:25.596Z,1.02
2022-09-06T12:50:26.050Z,0.40
2022-09-06T12:52:57.016Z,0.98
2022-09-06T12:55:29.029Z,1.20
2022-09-06T12:57:58.623Z,3.05
2022-09-06T13:00:31.625Z,1.20
2022-09-06T13:03:04.477Z,0.80
2022-09-06T13:05:32.242Z,0.70
2022-09-06T13:08:03.972Z,0.77
2022-09-06T13:10:31.258Z,0.60
2022-09-06T13:12:59.218Z,0.60
2022-09-06T13:15:33.374Z,0.52
2022-09-06T13:18:32.270Z,0.40
2022-09-06T13:23:26.780Z,0.68
2022-09-06T13:25:55.163Z,0.70
2022-09-06T13:28:30.765Z,0.60
2022-09-06T13:31:13.844Z,0.60
2022-09-06T13:33:41.962Z,0.80
2022-09-06T13:36:37.345Z,0.30
2022-09-06T13:39:04.556Z,0.90
2022-09-06T13:41:38.332Z,0.73
2022-09-06T13:44:16.846Z,0.70
2022-09-06T13:46:44.623Z,0.50
2022-09-06T13:49:11.728Z,2.88
2022-09-06T13:51:42.078Z,0.60
2022-09-06T13:54:14.410Z,1.25
2022-09-06T13:56:45.764Z,0.52
2022-09-06T13:59:13.039Z,0.75
2022-09-06T14:01:42.150Z,1.10
2022-09-06T14:04:13.420Z,0.40
2022-09-06T14:06:40.546Z,0.77
2022-09-06T14:09:08.403Z,0.93
2022-09-06T14:11:36.112Z,0.60
2022-09-06T14:14:03.251Z,0.80
2022-09-06T14:16:30.758Z,0.60
2022-09-06T14:18:58.283Z,0.50
2022-09-06T14:21:25.499Z,0.60
2022-09-06T14:23:53.068Z,0.77
2022-09-06T14:26:21.940Z,0.40
2022-09-06T14:28:49.400Z,0.50
2022-09-06T14:31:19.101Z,0.73
2022-09-06T14:33:46.732Z,0.50
2022-09-06T14:36:16.706Z,0.60
2022-09-06T14:38:45.410Z,0.65
2022-09-06T14:41:14.654Z,0.65
2022-09-06T14:43:47.665Z,0.40
2022-09-06T14:46:15.991Z,0.65
2022-09-06T14:48:44.156Z,10.07
2022-09-06T14:51:22.108Z,1.37
2022-09-06T14:53:52.106Z,0.70
2022-09-06T14:56:20.029Z,0.70
2022-09-06T14:58:47.169Z,0.82
2022-09-06T15:01:17.271Z,0.57
2022-09-06T15:03:51.727Z,0.55
2022-09-06T15:06:21.794Z,1.10
2022-09-06T15:08:49.704Z,1.25
2022-09-06T15:11:31.302Z,0.57
2022-09-06T15:13:58.773Z,0.70
2022-09-06T15:16:26.016Z,0.60
2022-09-06T15:18:55.073Z,0.70
2022-09-06T15:23:49.584Z,0.60
2022-09-06T15:26:16.635Z,0.70
2022-09-06T15:28:44.610Z,0.80
2022-09-06T15:31:12.974Z,0.70
2022-09-06T15:33:40.999Z,0.68
2022-09-06T15:36:10.150Z,1.02
2022-09-06T15:38:42.584Z,0.77
2022-09-06T15:41:12.153Z,0.70
2022-09-06T15:43:42.889Z,1.83
2022-09-06T15:46:10.336Z,1.08
2022-09-06T15:48:45.832Z,0.80
2022-09-06T15:51:16.038Z,0.95
2022-09-06T15:53:43.835Z,0.82
2022-09-06T15:56:17.447Z,1.05
2022-09-06T15:58:48.310Z,0.70
2022-09-06T16:01:16.846Z,0.80
2022-09-06T16:03:49.860Z,0.98
2022-09-06T16:08:55.747Z,1.52
2022-09-06T16:11:22.710Z,0.70
2022-09-06T16:13:49.705Z,0.90
2022-09-06T16:16:17.619Z,1.25
2022-09-06T16:18:49.132Z,0.70
2022-09-06T16:21:19.312Z,0.70
2022-09-06T16:23:59.905Z,0.70
2022-09-06T16:26:32.233Z,0.77
2022-09-06T16:29:00.525Z,0.70
2022-09-06T16:31:29.016Z,0.85
2022-09-06T16:33:57.862Z,1.10
2022-09-06T16:36:25.641Z,0.85
2022-09-06T16:38:53.057Z,0.90
2022-09-06T16:41:29.177Z,1.08
2022-09-06T16:43:56.606Z,1.05
2022-09-06T16:46:26.178Z,0.90
2022-09-06T16:48:59.950Z,3.33
2022-09-06T16:51:27.885Z,1.45
2022-09-06T16:53:55.921Z,1.35
2022-09-06T16:56:26.074Z,2.05
2022-09-06T16:58:55.272Z,1.70
2022-09-06T17:01:23.957Z,2.00
2022-09-06T17:03:51.671Z,2.47
2022-09-06T17:06:19.715Z,2.60
2022-09-06T17:08:47.728Z,2.60
2022-09-06T17:11:18.638Z,3.28
2022-09-06T17:13:47.418Z,3.10
2022-09-06T17:16:33.460Z,3.10
2022-09-06T17:19:02.013Z,2.95
2022-09-06T17:21:30.257Z,2.97
2022-09-06T17:24:03.204Z,3.17
2022-09-06T17:26:31.426Z,2.80
2022-09-06T17:28:58.562Z,2.83
2022-09-06T17:31:26.390Z,2.95
2022-09-06T17:33:53.699Z,3.00
2022-09-06T17:36:30.641Z,2.80
2022-09-06T17:39:01.884Z,2.75
2022-09-06T17:41:37.162Z,2.63
2022-09-06T17:44:06.894Z,3.58
2022-09-06T17:46:33.935Z,3.53
2022-09-06T17:49:00.888Z,2.97
2022-09-06T17:51:28.145Z,2.35
2022-09-06T17:53:56.025Z,2.50
2022-09-06T17:56:23.296Z,2.00
2022-09-06T17:59:02.456Z,2.10
2022-09-06T18:01:32.373Z,2.08
2022-09-06T18:03:59.953Z,2.10
2022-09-06T18:06:29.563Z,2.28
2022-09-06T18:08:58.487Z,2.45
2022-09-06T18:11:28.601Z,2.28
2022-09-06T18:14:01.226Z,2.28
2022-09-06T18:16:29.407Z,2.20
2022-09-06T18:18:58.468Z,1.90
2022-09-06T18:23:55.206Z,1.90
2022-09-06T18:26:22.197Z,1.95
2022-09-06T18:28:49.268Z,1.60
2022-09-06T18:31:19.056Z,1.50
2022-09-06T18:33:46.073Z,1.60
2022-09-06T18:36:15.654Z,1.75
2022-09-06T18:38:43.673Z,1.70
2022-09-06T18:41:31.438Z,1.67
2022-09-06T18:44:03.031Z,1.80
2022-09-06T18:46:32.162Z,1.52
2022-09-06T18:48:59.714Z,1.83
2022-09-06T18:51:27.528Z,1.85
2022-09-06T18:53:57.206Z,1.80
2022-09-06T18:56:24.943Z,1.80
2022-09-06T18:59:01.608Z,1.55
2022-09-06T19:01:30.185Z,1.50
2022-09-06T19:03:58.698Z,1.80
2022-09-06T19:06:27.435Z,1.38
2022-09-06T19:08:57.866Z,1.40
2022-09-06T19:11:25.162Z,1.38
2022-09-06T19:13:54.118Z,1.70
2022-09-06T19:18:49.236Z,1.80
2022-09-06T19:21:22.141Z,1.70
2022-09-06T19:24:04.737Z,3.20
2022-09-06T19:26:34.055Z,3.13
2022-09-06T19:29:03.606Z,2.30
2022-09-06T19:31:33.825Z,2.28
2022-09-06T19:34:01.709Z,2.58
2022-09-06T19:36:30.051Z,2.00
2022-09-06T19:39:06.429Z,2.40
2022-09-06T19:41:38.963Z,2.40
2022-09-06T19:44:08.815Z,2.35
2022-09-06T19:46:36.317Z,2.47
2022-09-06T19:49:03.710Z,2.92
2022-09-06T19:51:31.417Z,2.75
2022-09-06T19:53:58.339Z,2.63
2022-09-06T19:56:32.724Z,3.20
2022-09-06T19:59:02.483Z,2.70
2022-09-06T20:01:31.326Z,2.90
2022-09-06T20:03:59.967Z,2.67
2022-09-06T20:06:27.405Z,2.53
2022-09-06T20:08:56.390Z,2.28
2022-09-06T20:13:52.092Z,3.43
2022-09-06T20:16:20.863Z,2.85
2022-09-06T20:21:17.791Z,2.78
2022-09-06T20:26:15.703Z,2.35
2022-09-06T20:28:44.160Z,2.38
2022-09-06T20:31:16.677Z,2.40
2022-09-06T20:33:49.359Z,3.05
2022-09-06T20:36:17.900Z,2.60
2022-09-06T20:38:46.282Z,2.27
2022-09-06T20:41:24.299Z,2.60
2022-09-06T20:44:00.892Z,2.30
2022-09-06T20:46:32.753Z,2.30
2022-09-06T20:49:03.618Z,2.42
2022-09-06T20:51:31.042Z,2.58
2022-09-06T20:54:00.018Z,2.15
2022-09-06T20:56:33.881Z,2.22
2022-09-06T20:59:04.722Z,1.88
2022-09-06T21:01:35.125Z,1.90
2022-09-06T21:04:05.366Z,2.35
2022-09-06T21:06:36.542Z,1.90
2022-09-06T21:09:09.165Z,1.67
2022-09-06T21:11:36.748Z,2.08
2022-09-06T21:14:04.521Z,1.55
2022-09-06T21:16:32.247Z,1.80
2022-09-06T21:19:01.771Z,1.92
2022-09-06T21:21:30.659Z,1.83
2022-09-06T21:23:57.663Z,1.77
2022-09-06T21:26:24.610Z,1.55
2022-09-06T21:28:51.728Z,1.80
2022-09-06T21:31:23.249Z,1.45
2022-09-06T21:33:56.496Z,1.92
2022-09-06T21:36:27.665Z,1.65
2022-09-06T21:38:55.879Z,1.50
2022-09-06T21:41:23.616Z,1.47
2022-09-06T21:43:55.970Z,1.48
2022-09-06T21:46:29.009Z,1.65
2022-09-06T21:49:00.414Z,1.50
2022-09-06T21:51:27.862Z,1.60
2022-09-06T21:53:57.010Z,1.40
2022-09-06T21:56:25.116Z,1.33
2022-09-06T21:58:55.474Z,1.40
2022-09-06T22:01:28.684Z,1.40
2022-09-06T22:03:56.127Z,1.63
2022-09-06T22:06:28.994Z,1.50
2022-09-06T22:08:57.884Z,1.50
2022-09-06T22:11:30.006Z,1.60
2022-09-06T22:14:03.017Z,1.40
2022-09-06T22:16:33.877Z,1.27
2022-09-06T22:19:01.166Z,1.45
2022-09-06T22:21:28.120Z,1.48
2022-09-06T22:24:05.395Z,1.23
2022-09-06T22:26:34.947Z,1.08
2022-09-06T22:29:04.430Z,1.30
2022-09-06T22:31:32.953Z,1.30
2022-09-06T22:34:00.556Z,1.15
2022-09-06T22:36:28.698Z,1.50
2022-09-06T22:38:57.628Z,1.40
2022-09-06T22:41:27.159Z,1.00
2022-09-06T22:43:54.231Z,1.23
2022-09-06T22:46:21.389Z,1.50
2022-09-06T22:48:49.314Z,1.65
2022-09-06T22:51:16.418Z,1.45
2022-09-06T22:53:43.375Z,1.20
2022-09-06T22:56:10.562Z,1.13
2022-09-06T22:58:37.592Z,1.20
2022-09-06T23:01:10.647Z,1.30
2022-09-06T23:03:38.233Z,1.55
2022-09-06T23:06:05.616Z,1.10
2022-09-06T23:08:34.255Z,1.40
2022-09-06T23:11:08.936Z,1.30
2022-09-06T23:13:36.223Z,1.30
2022-09-06T23:16:06.705Z,1.30
2022-09-06T23:18:33.955Z,1.50
2022-09-06T23:21:06.163Z,1.17
2022-09-06T23:23:33.338Z,1.50
2022-09-06T23:26:05.439Z,1.50
2022-09-06T23:28:32.403Z,1.35
2022-09-06T23:31:02.022Z,1.50
2022-09-06T23:33:29.442Z,1.10
2022-09-06T23:35:56.368Z,1.52
2022-09-06T23:38:23.362Z,1.50
2022-09-06T23:40:50.381Z,2.35
2022-09-06T23:43:17.306Z,1.42
2022-09-06T23:45:44.298Z,1.60
2022-09-06T23:48:11.272Z,1.65
2022-09-06T23:50:38.265Z,1.67
2022-09-06T23:53:05.270Z,1.65
2022-09-06T23:55:33.545Z,1.52
2022-09-06T23:58:00.490Z,1.30
